createdAt,value
2024-01-05T00:09:51.958Z,33.77
2024-01-05T00:25:18.072Z,33.62
2024-01-05T00:40:43.025Z,33.41
2024-01-05T00:56:08.051Z,33.40
2024-01-05T01:11:32.993Z,33.21
2024-01-05T01:26:57.944Z,32.88
2024-01-05T01:42:23.028Z,32.75
2024-01-05T01:57:47.927Z,32.75
2024-01-05T02:13:12.894Z,32.49
2024-01-05T02:28:37.919Z,32.44
2024-01-05T02:44:02.913Z,32.26
2024-01-05T02:59:27.917Z,32.59
2024-01-05T03:14:52.907Z,32.87
2024-01-05T03:30:17.969Z,33.31
2024-01-05T03:45:42.926Z,33.63
2024-01-05T04:01:07.920Z,33.93
2024-01-05T04:16:32.857Z,33.88
2024-01-05T04:31:57.827Z,34.00
2024-01-05T04:47:22.868Z,34.11
2024-01-05T05:02:47.886Z,34.29
2024-01-05T05:18:12.975Z,34.39
2024-01-05T05:33:37.948Z,34.55
2024-01-05T05:49:02.992Z,34.93
2024-01-05T06:04:27.910Z,35.31
2024-01-05T06:19:52.827Z,35.01
2024-01-05T06:35:17.804Z,35.26
2024-01-05T06:50:42.900Z,35.27
2024-01-05T07:06:07.789Z,35.41
2024-01-05T07:21:32.836Z,35.56
2024-01-05T07:36:57.789Z,35.67
2024-01-05T07:52:22.724Z,35.94
2024-01-05T08:07:47.780Z,36.08
2024-01-05T08:23:12.748Z,36.09
2024-01-05T08:38:37.672Z,36.32
2024-01-05T08:54:02.694Z,36.16
2024-01-05T09:09:27.753Z,36.15
2024-01-05T09:24:52.685Z,36.54
2024-01-05T09:40:17.659Z,36.76
2024-01-05T09:55:42.637Z,36.66
2024-01-05T10:11:07.595Z,36.45
2024-01-05T10:26:32.618Z,37.06
2024-01-05T10:41:57.648Z,36.33
2024-01-05T10:57:22.761Z,35.80
2024-01-05T11:12:47.660Z,35.95
2024-01-05T11:28:12.606Z,37.04
2024-01-05T11:43:37.580Z,36.35
2024-01-05T11:59:02.581Z,36.16
2024-01-05T12:14:27.534Z,35.99
2024-01-05T12:29:53.601Z,36.15
2024-01-05T12:45:18.551Z,36.00
2024-01-05T13:00:44.800Z,35.86
2024-01-05T13:16:09.584Z,35.47
2024-01-05T13:31:34.717Z,35.42
2024-01-05T13:46:59.590Z,35.46
2024-01-05T14:02:24.519Z,35.39
2024-01-05T14:17:49.537Z,35.16
2024-01-05T14:33:14.533Z,35.32
2024-01-05T14:48:39.702Z,35.11
2024-01-05T15:04:04.646Z,35.06
2024-01-05T15:19:29.608Z,35.07
2024-01-05T15:34:54.525Z,35.54
2024-01-05T15:50:19.493Z,36.02
2024-01-05T16:05:44.499Z,35.98
2024-01-05T16:21:09.445Z,36.35
2024-01-05T16:36:34.431Z,36.26
2024-01-05T16:51:59.465Z,36.30
2024-01-05T17:07:24.358Z,36.70
2024-01-05T17:22:49.406Z,35.91
2024-01-05T17:38:14.410Z,35.68
2024-01-05T17:53:39.450Z,35.57
2024-01-05T18:09:04.438Z,35.46
2024-01-05T18:24:29.592Z,35.61
2024-01-05T18:39:54.454Z,35.71
2024-01-05T18:55:19.344Z,35.94
2024-01-05T19:10:45.345Z,36.03
2024-01-05T19:26:10.350Z,36.15
2024-01-05T19:41:35.327Z,36.26
2024-01-05T19:57:00.340Z,36.58
2024-01-05T20:12:25.351Z,37.12
2024-01-05T20:27:50.413Z,37.64
2024-01-05T20:43:15.309Z,38.01
2024-01-05T20:58:42.424Z,37.93
2024-01-05T21:14:05.304Z,38.07
2024-01-05T21:29:31.252Z,38.32
2024-01-05T21:44:56.276Z,38.39
2024-01-05T22:00:21.281Z,37.72
2024-01-05T22:15:46.191Z,37.25
2024-01-05T22:31:11.376Z,36.90
2024-01-05T22:46:36.174Z,36.61
2024-01-05T23:02:01.280Z,36.35
2024-01-05T23:17:26.234Z,36.13
2024-01-05T23:32:51.209Z,35.91
2024-01-05T23:48:16.313Z,36.07
